createdAt,value
2022-08-07T00:03:49.076Z,10.94
2022-08-07T00:18:49.077Z,10.5
2022-08-07T00:33:48.725Z,10.55
2022-08-07T00:48:49.711Z,10.54
2022-08-07T01:03:55.106Z,10.31
2022-08-07T01:18:48.640Z,8.57
2022-08-07T01:33:55.328Z,8.38
2022-08-07T01:48:49.013Z,6.86
2022-08-07T02:03:50.255Z,5.61
2022-08-07T02:18:48.986Z,6.79
2022-08-07T02:33:57.457Z,14.61
2022-08-07T02:48:54.849Z,13.56
2022-08-07T03:03:50.802Z,14.52
2022-08-07T03:18:48.933Z,13.59
2022-08-07T03:33:48.958Z,15.35
2022-08-07T03:49:02.359Z,16.23
2022-08-07T04:03:50.044Z,17.38
2022-08-07T04:18:58.887Z,17.36
2022-08-07T04:33:54.866Z,16.46
2022-08-07T04:48:51.097Z,18.68
2022-08-07T05:04:01.181Z,18.54
2022-08-07T05:18:48.983Z,17.3
2022-08-07T05:33:51.446Z,16.8
2022-08-07T05:48:57.333Z,16.22
2022-08-07T06:03:54.165Z,14.43
2022-08-07T06:18:51.430Z,11.46
2022-08-07T06:33:48.738Z,10.91
2022-08-07T06:48:48.668Z,10.07
2022-08-07T07:03:56.400Z,8.73
2022-08-07T07:18:48.858Z,8.89
2022-08-07T07:33:55.133Z,11.75
2022-08-07T07:48:48.917Z,8.94
2022-08-07T08:04:06.725Z,11.03
2022-08-07T08:18:50.242Z,10.25
2022-08-07T08:33:50.230Z,9.84
2022-08-07T08:48:50.889Z,10.1
2022-08-07T09:03:49.629Z,8.49
2022-08-07T09:18:53.479Z,8.79
2022-08-07T09:33:52.880Z,10.59
2022-08-07T09:50:00.211Z,11.41
2022-08-07T10:04:04.633Z,10.4
2022-08-07T10:18:48.504Z,10.37
2022-08-07T10:34:07.130Z,8.53
2022-08-07T10:48:48.918Z,9.97
2022-08-07T11:03:52.870Z,10.12
2022-08-07T11:18:50.835Z,11.35
2022-08-07T11:33:54.574Z,11.18
2022-08-07T11:49:04.314Z,11.5
2022-08-07T12:03:49.078Z,11.52
2022-08-07T12:18:50.680Z,11.85
2022-08-07T12:33:56.298Z,12.27
2022-08-07T12:48:52.381Z,12.56
2022-08-07T13:03:56.505Z,12.51
2022-08-07T13:18:50.675Z,12.14
2022-08-07T13:34:32.551Z,12.67
2022-08-07T13:48:51.855Z,14.01
2022-08-07T14:04:05.735Z,13.76
2022-08-07T14:18:49.718Z,14.48
2022-08-07T14:33:48.729Z,13.44
2022-08-07T14:48:49.102Z,13.6
2022-08-07T15:03:51.798Z,11.36
2022-08-07T15:18:48.563Z,10.97
2022-08-07T15:33:48.497Z,10.94
2022-08-07T15:49:03.865Z,10.72
2022-08-07T16:03:55.532Z,11.61
2022-08-07T16:18:50.175Z,11.08
2022-08-07T16:34:00.752Z,10.63
2022-08-07T16:48:53.576Z,10.14
2022-08-07T17:03:57.831Z,10.79
2022-08-07T17:18:48.612Z,10.31
2022-08-07T17:34:10.722Z,12.3
2022-08-07T17:48:48.507Z,11.13
2022-08-07T18:04:03.811Z,10.44
2022-08-07T18:21:02.057Z,10.63
2022-08-07T18:33:55.498Z,10.79
2022-08-07T18:50:06.183Z,14.24
2022-08-07T19:03:49.590Z,10.29
2022-08-07T19:18:49.109Z,10.36
2022-08-07T19:33:56.563Z,9.48
2022-08-07T19:48:53.417Z,9.98
2022-08-07T20:03:48.498Z,9.32
2022-08-07T20:18:49.157Z,8.56
2022-08-07T20:33:48.493Z,9.19
2022-08-07T20:48:58.223Z,8.92
2022-08-07T21:04:07.523Z,9.32
2022-08-07T21:18:50.459Z,9.38
2022-08-07T21:33:49.329Z,8.76
2022-08-07T21:48:56.014Z,8.98
2022-08-07T22:03:48.672Z,9.01
2022-08-07T22:18:49.071Z,9.19
2022-08-07T22:33:51.094Z,9.96
2022-08-07T22:48:56.391Z,9.25
2022-08-07T23:03:57.216Z,9.26
2022-08-07T23:18:49.161Z,9.58
2022-08-07T23:34:20.576Z,8.9
2022-08-07T23:48:48.979Z,9.36
